Detall de PIREP

Printer-friendly versionPDF version

[2014/12/20 07:01:00]
Flight IATA:CT0001
Pilot Number:041
Company ICAO:CAT
Aircraft Type:DC3/A
PAX:12
Aircraft Registration:PAX
Departing Airport: LEVC
Destination Airport: LEMH
Alternate Airport:LEPA
Online: VATSIM
Route:RIKOS A33 TURIA A33 GATOS A33 MJV
Flight Level:FL60
No Slew and time accel
No pause
Crash detect
Detect pilot in Cockpit between each 30 and 45 minutes
07:01 Zero fuel Weight: 20810 Lbs, Fuel Weight: 4823 Lbs
07:01 VATSIM:LEVC 200630Z 29004KT 260V320 0300 0150W R30/0650N FG VV001 09/09 Q1030 NOSIG
07:01 VATSIM:LEMH 200630Z 32004KT 9999 FEW020 09/08 Q1029
07:02 VOICE CATALONIAN
07:09 Parking Brakes off
07:19 Take-off
07:19 Take off Weight: 25583 Lbs
07:19 Wind: 290º @ 003 Knots Heading: 298º
07:19 POS N39º 29´ 15´´ W000º 28´ 38´´
07:19 Gear Up: 096 Knots
07:19 Flaps:1 at 96 Knots
07:19 Flaps:0 at 104 Knots
07:27 TOC
07:27 Fuel Weight: 4647 Lb
07:28 TOD
07:28 Fuel Weight: 4631 Lb
07:28 TOC
07:28 Fuel Weight: 4630 Lb
07:34 Wind:031º@006 Knots Heading: 093º Ground Speed: 161 Knots Altitude 6059 ft
07:38 TOD
07:38 Fuel Weight: 4530 Lb
07:38 TOC
07:38 Fuel Weight: 4528 Lb
07:43 TOD
07:43 Fuel Weight: 4477 Lb
07:45 TOC
07:45 Fuel Weight: 4453 Lb
07:46 TOD
07:46 Fuel Weight: 4439 Lb
07:49 Wind:018º@007 Knots Heading: 095º Ground Speed: 157 Knots Altitude 5997 ft
07:50 TOC
07:50 Fuel Weight: 4397 Lb
08:04 Wind:018º@007 Knots Heading: 096º Ground Speed: 158 Knots Altitude 7132 ft
08:19 Wind:312º@017 Knots Heading: 088º Ground Speed: 172 Knots Altitude 6440 ft
08:21 TOD
08:21 Fuel Weight: 4073 Lb
08:34 Wind:301º@014 Knots Heading: 050º Ground Speed: 158 Knots Altitude 6046 ft
08:38 TOC
08:38 Fuel Weight: 3902 Lb
08:42 TOD
08:42 Fuel Weight: 3860 Lb
08:43 TOC
08:43 Fuel Weight: 3854 Lb
08:43 TOD
08:43 Fuel Weight: 3853 Lb
08:47 Flaps:1 at 135 Knots
08:47 Flaps:2 at 116 Knots
08:47 Gear Down: 115 Knots
08:48 Flaps:3 at 104 Knots
08:48 Flaps:4 at 89 Knots
08:49 Wind:299º@002 Knots Heading: 009º Ground Speed: 080 Knots Altitude 672 ft
08:50 TouchDown:Rate -198 ft/min Speed: 73 Knots
08:50 Flaps:0 at 56 Knots
08:50 VATSIM:LEMH 200830Z 30003KT 9999 BKN020 12/11 Q1030
08:50 Land
08:50 Wind:299º@002 Knots
08:50 Heading: 007º
08:50 Flight Duration: 01:31
08:50 Landing Weight: 24640 Lbs
08:50 POS N39º 51´ 27´´ E004º 13´ 03´´
08:54 Parking brakes on
08:54 Block to Block Duration: 01:45
08:54 Final Fuel: 3816 Lbls
08:54 Spent Fuel: 1007 Lbls
08:54 Flight Length: 234 NM
08:54 TOD Land Length: 14 NM

Exportar CSV

Powered by Drupal - Modified by Danger4k